Time,TemperatureF,DewpointF,PressureIn,WindDirection,WindDirectionDegrees,WindSpeedMPH,WindSpeedGustMPH,Humidity,HourlyPrecipIn,Conditions,Clouds,dailyrainin,SoftwareType,DateUTC
2013-01-24 00:02:00,37.8,-5.8,30.27,SSW,205,0.0,2.0,15,0.00,,,0.00,meteohub,2013-01-24 07:02:00,
2013-01-24 00:07:00,37.6,-6.0,30.27,ESE,112,0.0,1.0,15,0.00,,,0.00,meteohub,2013-01-24 07:07:00,
2013-01-24 00:12:00,37.6,-6.0,30.26,ESE,112,0.0,1.0,15,0.00,,,0.00,meteohub,2013-01-24 07:12:00,
2013-01-24 00:17:00,37.8,-5.8,30.26,ENE,77,0.0,1.0,15,0.00,,,0.00,meteohub,2013-01-24 07:17:00,
2013-01-24 00:22:00,37.8,-5.8,30.26,NNW,332,1.0,1.0,15,0.00,,,0.00,meteohub,2013-01-24 07:22:00,
2013-01-24 00:27:00,37.8,-5.8,30.26,NNW,331,0.0,1.0,15,0.00,,,0.00,meteohub,2013-01-24 07:27:00,
2013-01-24 00:33:00,37.8,-5.8,30.26,WNW,285,0.0,1.0,15,0.00,,,0.00,meteohub,2013-01-24 07:33:00,
2013-01-24 00:38:00,37.8,-5.8,30.26,West,266,0.0,1.0,15,0.00,,,0.00,meteohub,2013-01-24 07:38:00,
2013-01-24 00:44:00,37.8,-5.8,30.26,West,279,3.0,3.0,15,0.00,,,0.00,meteohub,2013-01-24 07:44:00,
2013-01-24 00:49:00,37.8,-5.8,30.25,WSW,255,1.0,3.0,15,0.00,,,0.00,meteohub,2013-01-24 07:49:00,
2013-01-24 00:55:00,38.1,-5.4,30.25,West,273,0.0,3.0,15,0.00,,,0.00,meteohub,2013-01-24 07:55:00,
2013-01-24 01:00:00,38.1,-5.4,30.25,West,279,3.0,3.0,15,0.00,,,0.00,meteohub,2013-01-24 08:00:00,
2013-01-24 01:06:00,37.9,-5.6,30.24,SSW,210,1.0,3.0,15,0.00,,,0.00,meteohub,2013-01-24 08:06:00,
2013-01-24 01:11:00,37.8,-5.8,30.24,WSW,243,2.0,3.0,15,0.00,,,0.00,meteohub,2013-01-24 08:11:00,
2013-01-24 01:17:00,37.4,-6.0,30.24,WSW,240,0.0,3.0,15,0.00,,,0.00,meteohub,2013-01-24 08:17:00,
2013-01-24 01:22:00,37.4,-6.0,30.24,SSW,194,0.0,3.0,15,0.00,,,0.00,meteohub,2013-01-24 08:22:00,
2013-01-24 01:27:00,37.0,-6.3,30.24,South,187,0.0,3.0,15,0.00,,,0.00,meteohub,2013-01-24 08:27:00,
2013-01-24 01:32:00,36.7,-5.3,30.23,South,187,0.0,2.0,16,0.00,,,0.00,meteohub,2013-01-24 08:32:00,
2013-01-24 01:37:00,36.1,-5.8,30.23,South,191,0.0,1.0,16,0.00,,,0.00,meteohub,2013-01-24 08:37:00,
2013-01-24 01:42:00,36.5,-5.4,30.23,SE,129,0.0,1.0,16,0.00,,,0.00,meteohub,2013-01-24 08:42:00,
2013-01-24 01:47:00,36.5,-5.4,30.23,SSE,160,3.0,3.0,16,0.00,,,0.00,meteohub,2013-01-24 08:47:00,
2013-01-24 01:52:00,36.0,-6.0,30.23,SSE,164,2.0,4.0,16,0.00,,,0.00,meteohub,2013-01-24 08:52:00,
2013-01-24 01:57:00,35.4,-3.8,30.22,ESE,108,1.0,4.0,18,0.00,,,0.00,meteohub,2013-01-24 08:57:00,
2013-01-24 02:02:00,35.1,-3.1,30.22,ESE,122,3.0,4.0,19,0.00,,,0.00,meteohub,2013-01-24 09:02:00,
2013-01-24 02:07:00,34.5,-3.5,30.22,SE,132,0.0,4.0,19,0.00,,,0.00,meteohub,2013-01-24 09:07:00,
2013-01-24 02:12:00,33.6,-3.3,30.22,NNE,32,0.0,4.0,20,0.00,,,0.00,meteohub,2013-01-24 09:12:00,
2013-01-24 02:17:00,33.3,-3.5,30.22,NNW,330,0.0,4.0,20,0.00,,,0.00,meteohub,2013-01-24 09:17:00,
2013-01-24 02:22:00,32.9,-3.8,30.22,NW,317,0.0,2.0,20,0.00,,,0.00,meteohub,2013-01-24 09:22:00,
2013-01-24 02:27:00,32.9,-3.8,30.22,NW,315,1.0,2.0,20,0.00,,,0.00,meteohub,2013-01-24 09:27:00,
2013-01-24 02:32:00,32.5,-3.1,30.22,NW,316,0.0,3.0,21,0.00,,,0.00,meteohub,2013-01-24 09:32:00,
2013-01-24 02:37:00,31.6,-2.0,30.22,WNW,288,2.0,4.0,23,0.00,,,0.00,meteohub,2013-01-24 09:37:00,
2013-01-24 02:42:00,31.3,-2.2,30.22,WNW,298,1.0,5.0,23,0.00,,,0.00,meteohub,2013-01-24 09:42:00,
2013-01-24 02:47:00,31.8,-2.7,30.22,NW,323,2.0,5.0,22,0.00,,,0.00,meteohub,2013-01-24 09:47:00,
2013-01-24 02:52:00,32.7,-2.9,30.22,NW,308,0.0,5.0,21,0.00,,,0.00,meteohub,2013-01-24 09:52:00,
2013-01-24 02:57:00,33.3,-2.6,30.22,West,279,2.0,3.0,21,0.00,,,0.00,meteohub,2013-01-24 09:57:00,
2013-01-24 03:02:00,33.6,-3.3,30.22,NNW,328,2.0,3.0,20,0.00,,,0.00,meteohub,2013-01-24 10:02:00,
2013-01-24 03:07:00,33.6,-3.3,30.22,NW,323,4.0,4.0,20,0.00,,,0.00,meteohub,2013-01-24 10:07:00,
2013-01-24 03:12:00,31.8,-1.8,30.22,WNW,302,1.0,4.0,23,0.00,,,0.00,meteohub,2013-01-24 10:12:00,
2013-01-24 03:17:00,31.1,-1.5,30.21,NW,317,1.0,5.0,24,0.00,,,0.00,meteohub,2013-01-24 10:17:00,
2013-01-24 03:22:00,31.3,-2.2,30.21,NW,309,1.0,5.0,23,0.00,,,0.00,meteohub,2013-01-24 10:22:00,
2013-01-24 03:27:00,32.2,-2.4,30.21,NW,306,2.0,4.0,22,0.00,,,0.00,meteohub,2013-01-24 10:27:00,
2013-01-24 03:33:00,32.2,-2.4,30.20,NW,323,1.0,4.0,22,0.00,,,0.00,meteohub,2013-01-24 10:33:00,
2013-01-24 03:38:00,32.4,-3.3,30.20,NW,323,2.0,4.0,21,0.00,,,0.00,meteohub,2013-01-24 10:38:00,
2013-01-24 03:44:00,32.5,-3.1,30.20,NNW,328,2.0,4.0,21,0.00,,,0.00,meteohub,2013-01-24 10:44:00,
2013-01-24 03:49:00,32.2,-2.4,30.20,NW,308,2.0,3.0,22,0.00,,,0.00,meteohub,2013-01-24 10:49:00,
2013-01-24 03:55:00,32.2,-2.4,30.20,NW,307,1.0,3.0,22,0.00,,,0.00,meteohub,2013-01-24 10:55:00,
2013-01-24 04:00:00,32.5,-3.1,30.19,NW,324,2.0,4.0,21,0.00,,,0.00,meteohub,2013-01-24 11:00:00,
2013-01-24 04:06:00,32.5,-3.1,30.19,NW,322,0.0,4.0,21,0.00,,,0.00,meteohub,2013-01-24 11:06:00,
2013-01-24 04:11:00,32.9,-2.7,30.19,NW,321,1.0,4.0,21,0.00,,,0.00,meteohub,2013-01-24 11:11:00,
2013-01-24 04:17:00,32.9,-2.7,30.18,NNW,337,0.0,3.0,21,0.00,,,0.00,meteohub,2013-01-24 11:17:00,
2013-01-24 04:22:00,32.9,-2.7,30.18,WNW,295,2.0,2.0,21,0.00,,,0.00,meteohub,2013-01-24 11:22:00,
2013-01-24 04:27:00,32.7,-2.9,30.18,NW,320,1.0,3.0,21,0.00,,,0.00,meteohub,2013-01-24 11:27:00,
2013-01-24 04:32:00,32.7,-2.9,30.18,West,271,1.0,4.0,21,0.00,,,0.00,meteohub,2013-01-24 11:32:00,
2013-01-24 04:37:00,32.4,-3.3,30.17,WNW,284,2.0,4.0,21,0.00,,,0.00,meteohub,2013-01-24 11:37:00,
2013-01-24 04:42:00,32.2,-3.5,30.17,NW,311,1.0,4.0,21,0.00,,,0.00,meteohub,2013-01-24 11:42:00,
2013-01-24 04:47:00,32.5,-3.1,30.18,WNW,300,3.0,3.0,21,0.00,,,0.00,meteohub,2013-01-24 11:47:00,
2013-01-24 04:52:00,32.4,-3.3,30.17,NW,323,2.0,4.0,21,0.00,,,0.00,meteohub,2013-01-24 11:52:00,
2013-01-24 04:57:00,32.0,-3.5,30.17,WNW,294,2.0,4.0,21,0.00,,,0.00,meteohub,2013-01-24 11:57:00,
2013-01-24 05:02:00,32.5,-3.1,30.17,WNW,297,1.0,4.0,21,0.00,,,0.00,meteohub,2013-01-24 12:02:00,
2013-01-24 05:07:00,32.7,-2.9,30.17,NW,322,3.0,4.0,21,0.00,,,0.00,meteohub,2013-01-24 12:07:00,
2013-01-24 05:12:00,31.8,-2.7,30.18,WNW,287,2.0,4.0,22,0.00,,,0.00,meteohub,2013-01-24 12:12:00,
2013-01-24 05:17:00,31.6,-2.0,30.17,NW,309,2.0,5.0,23,0.00,,,0.00,meteohub,2013-01-24 12:17:00,
2013-01-24 05:22:00,30.7,-2.7,30.17,NNW,328,0.0,5.0,23,0.00,,,0.00,meteohub,2013-01-24 12:22:00,
2013-01-24 05:27:00,31.3,-3.1,30.17,WNW,293,0.0,5.0,22,0.00,,,0.00,meteohub,2013-01-24 12:27:00,
2013-01-24 05:32:00,31.6,-2.9,30.16,West,281,2.0,5.0,22,0.00,,,0.00,meteohub,2013-01-24 12:32:00,
2013-01-24 05:37:00,32.0,-3.5,30.16,West,278,2.0,5.0,21,0.00,,,0.00,meteohub,2013-01-24 12:37:00,
2013-01-24 05:42:00,32.7,-4.0,30.17,WNW,303,1.0,4.0,20,0.00,,,0.00,meteohub,2013-01-24 12:42:00,
2013-01-24 05:47:00,31.6,-2.0,30.17,West,271,1.0,7.0,23,0.00,,,0.00,meteohub,2013-01-24 12:47:00,
2013-01-24 05:52:00,31.8,-3.6,30.17,SSW,206,2.0,9.0,21,0.00,,,0.00,meteohub,2013-01-24 12:52:00,
2013-01-24 05:57:00,32.5,-4.2,30.17,West,270,1.0,9.0,20,0.00,,,0.00,meteohub,2013-01-24 12:57:00,
2013-01-24 06:02:00,33.6,-4.4,30.17,NW,322,2.0,5.0,19,0.00,,,0.00,meteohub,2013-01-24 13:02:00,
2013-01-24 06:07:00,34.2,-2.7,30.17,WNW,284,2.0,3.0,20,0.00,,,0.00,meteohub,2013-01-24 13:07:00,
2013-01-24 06:12:00,33.3,-3.5,30.17,SSW,205,0.0,3.0,20,0.00,,,0.00,meteohub,2013-01-24 13:12:00,
2013-01-24 06:17:00,34.3,-3.6,30.17,East,82,1.0,3.0,19,0.00,,,0.00,meteohub,2013-01-24 13:17:00,
2013-01-24 06:22:00,34.5,-3.5,30.17,NW,309,1.0,4.0,19,0.00,,,0.00,meteohub,2013-01-24 13:22:00,
2013-01-24 06:27:00,34.0,-4.0,30.17,South,183,1.0,4.0,19,0.00,,,0.00,meteohub,2013-01-24 13:27:00,
2013-01-24 06:32:00,34.0,-4.0,30.17,SSW,195,1.0,3.0,19,0.00,,,0.00,meteohub,2013-01-24 13:32:00,
2013-01-24 06:37:00,34.3,-4.7,30.17,SE,136,0.0,3.0,18,0.00,,,0.00,meteohub,2013-01-24 13:37:00,
2013-01-24 06:42:00,34.0,-4.0,30.16,NNW,328,0.0,2.0,19,0.00,,,0.00,meteohub,2013-01-24 13:42:00,
2013-01-24 06:47:00,34.2,-3.8,30.17,NE,53,4.0,4.0,19,0.00,,,0.00,meteohub,2013-01-24 13:47:00,
2013-01-24 06:52:00,33.1,-2.6,30.17,WNW,293,5.0,5.0,21,0.00,,,0.00,meteohub,2013-01-24 13:52:00,
2013-01-24 06:57:00,33.3,-4.5,30.15,ESE,120,11.0,11.0,19,0.00,,,0.00,meteohub,2013-01-24 13:57:00,
2013-01-24 07:02:00,35.8,-2.6,30.16,WNW,288,4.0,14.0,19,0.00,,,0.00,meteohub,2013-01-24 14:02:00,
2013-01-24 07:07:00,34.5,-3.5,30.16,WNW,295,4.0,14.0,19,0.00,,,0.00,meteohub,2013-01-24 14:07:00,
2013-01-24 07:12:00,35.2,-2.9,30.16,East,79,4.0,14.0,19,0.00,,,0.00,meteohub,2013-01-24 14:12:00,
2013-01-24 07:17:00,34.5,-3.5,30.16,NW,315,4.0,9.0,19,0.00,,,0.00,meteohub,2013-01-24 14:17:00,
2013-01-24 07:22:00,35.1,-4.2,30.15,ESE,110,5.0,9.0,18,0.00,,,0.00,meteohub,2013-01-24 14:22:00,
2013-01-24 07:27:00,37.2,-3.6,30.16,NNW,329,2.0,10.0,17,0.00,,,0.00,meteohub,2013-01-24 14:27:00,
2013-01-24 07:32:00,38.5,-3.8,30.15,NNW,343,3.0,10.0,16,0.00,,,0.00,meteohub,2013-01-24 14:32:00,
2013-01-24 07:37:00,38.5,-2.6,30.15,West,280,0.0,10.0,17,0.00,,,0.00,meteohub,2013-01-24 14:37:00,
2013-01-24 07:42:00,39.6,-0.4,30.14,NW,313,14.0,21.0,18,0.00,,,0.00,meteohub,2013-01-24 14:42:00,
2013-01-24 07:47:00,42.3,-0.8,30.14,NW,322,13.0,25.0,16,0.00,,,0.00,meteohub,2013-01-24 14:47:00,
2013-01-24 07:52:00,43.5,0.3,30.13,NW,325,17.0,25.0,16,0.00,,,0.00,meteohub,2013-01-24 14:52:00,
2013-01-24 07:57:00,43.0,-0.2,30.15,West,278,6.0,29.0,16,0.00,,,0.00,meteohub,2013-01-24 14:57:00,
2013-01-24 08:02:00,42.3,0.5,30.15,SW,236,3.0,29.0,17,0.00,,,0.00,meteohub,2013-01-24 15:02:00,
2013-01-24 08:08:00,41.9,1.4,30.14,NE,38,9.0,29.0,18,0.00,,,0.00,meteohub,2013-01-24 15:08:00,
2013-01-24 08:13:00,42.4,0.7,30.15,NNE,19,3.0,18.0,17,0.00,,,0.00,meteohub,2013-01-24 15:13:00,
2013-01-24 08:19:00,42.6,2.1,30.14,WNW,293,4.0,18.0,18,0.00,,,0.00,meteohub,2013-01-24 15:19:00,
2013-01-24 08:24:00,43.9,3.0,30.14,NW,323,13.0,15.0,18,0.00,,,0.00,meteohub,2013-01-24 15:24:00,
2013-01-24 08:30:00,44.4,2.3,30.15,East,98,1.0,18.0,17,0.00,,,0.00,meteohub,2013-01-24 15:30:00,
2013-01-24 08:35:00,43.3,0.1,30.16,SSE,162,3.0,18.0,16,0.00,,,0.00,meteohub,2013-01-24 15:35:00,
2013-01-24 08:41:00,40.6,0.5,30.15,NNE,27,6.0,12.0,18,0.00,,,0.00,meteohub,2013-01-24 15:41:00,
2013-01-24 08:46:00,40.3,2.3,30.15,NW,306,5.0,10.0,20,0.00,,,0.00,meteohub,2013-01-24 15:46:00,
2013-01-24 08:52:00,42.6,4.3,30.14,NW,315,12.0,19.0,20,0.00,,,0.00,meteohub,2013-01-24 15:52:00,
2013-01-24 08:57:00,44.8,5.0,30.14,NW,325,12.0,22.0,19,0.00,,,0.00,meteohub,2013-01-24 15:57:00,
2013-01-24 09:02:00,45.1,6.4,30.14,NW,307,14.0,27.0,20,0.00,,,0.00,meteohub,2013-01-24 16:02:00,
2013-01-24 09:07:00,45.7,6.8,30.13,NW,323,12.0,31.0,20,0.00,,,0.00,meteohub,2013-01-24 16:07:00,
2013-01-24 09:12:00,45.9,7.0,30.12,NW,316,17.0,31.0,20,0.00,,,0.00,meteohub,2013-01-24 16:12:00,
2013-01-24 09:17:00,46.0,9.3,30.13,WNW,284,2.0,31.0,22,0.00,,,0.00,meteohub,2013-01-24 16:17:00,
2013-01-24 09:22:00,44.4,3.6,30.13,WSW,250,7.0,23.0,18,0.00,,,0.00,meteohub,2013-01-24 16:22:00,
2013-01-24 09:27:00,42.6,3.2,30.12,South,184,2.0,23.0,19,0.00,,,0.00,meteohub,2013-01-24 16:27:00,
2013-01-24 09:32:00,41.7,4.6,30.12,SSW,193,3.0,14.0,21,0.00,,,0.00,meteohub,2013-01-24 16:32:00,
2013-01-24 09:37:00,41.7,5.7,30.13,NW,322,4.0,14.0,22,0.00,,,0.00,meteohub,2013-01-24 16:37:00,
2013-01-24 09:42:00,43.2,10.6,30.12,WNW,288,4.0,9.0,26,0.00,,,0.00,meteohub,2013-01-24 16:42:00,
2013-01-24 09:47:00,45.0,15.4,30.12,West,263,6.0,13.0,30,0.00,,,0.00,meteohub,2013-01-24 16:47:00,
2013-01-24 09:52:00,45.7,15.3,30.12,NNW,327,5.0,19.0,29,0.00,,,0.00,meteohub,2013-01-24 16:52:00,
2013-01-24 09:57:00,46.0,15.6,30.11,NE,56,4.0,19.0,29,0.00,,,0.00,meteohub,2013-01-24 16:57:00,
2013-01-24 10:02:00,46.8,12.7,30.10,East,99,10.0,14.0,25,0.00,,,0.00,meteohub,2013-01-24 17:02:00,
2013-01-24 10:07:00,46.6,7.7,30.10,SSE,160,3.0,13.0,20,0.00,,,0.00,meteohub,2013-01-24 17:07:00,
2013-01-24 10:12:00,47.1,9.1,30.10,SSE,160,9.0,11.0,21,0.00,,,0.00,meteohub,2013-01-24 17:12:00,
2013-01-24 10:17:00,46.9,9.0,30.09,SE,134,0.0,11.0,21,0.00,,,0.00,meteohub,2013-01-24 17:17:00,
2013-01-24 10:22:00,47.5,10.6,30.09,SSE,149,3.0,10.0,22,0.00,,,0.00,meteohub,2013-01-24 17:22:00,
2013-01-24 10:27:00,48.4,12.2,30.09,South,188,5.0,10.0,23,0.00,,,0.00,meteohub,2013-01-24 17:27:00,
2013-01-24 10:32:00,48.6,13.5,30.09,SE,139,8.0,9.0,24,0.00,,,0.00,meteohub,2013-01-24 17:32:00,
2013-01-24 10:37:00,48.9,11.7,30.08,SE,143,7.0,9.0,22,0.00,,,0.00,meteohub,2013-01-24 17:37:00,
2013-01-24 10:42:00,48.9,11.7,30.08,SE,125,6.0,16.0,22,0.00,,,0.00,meteohub,2013-01-24 17:42:00,
2013-01-24 10:47:00,49.1,12.9,30.07,ESE,115,6.0,16.0,23,0.00,,,0.00,meteohub,2013-01-24 17:47:00,
2013-01-24 10:52:00,48.9,13.6,30.07,NNW,334,7.0,16.0,24,0.00,,,0.00,meteohub,2013-01-24 17:52:00,
2013-01-24 10:57:00,49.5,16.0,30.07,NE,53,6.0,15.0,26,0.00,,,0.00,meteohub,2013-01-24 17:57:00,
2013-01-24 11:02:00,49.3,17.6,30.06,WNW,303,9.0,15.0,28,0.00,,,0.00,meteohub,2013-01-24 18:02:00,
2013-01-24 11:07:00,48.7,17.1,30.05,SE,136,5.0,20.0,28,0.00,,,0.00,meteohub,2013-01-24 18:07:00,
2013-01-24 11:12:00,49.5,16.9,30.05,North,1,3.0,23.0,27,0.00,,,0.00,meteohub,2013-01-24 18:12:00,
2013-01-24 11:17:00,49.8,18.0,30.05,North,359,13.0,23.0,28,0.00,,,0.00,meteohub,2013-01-24 18:17:00,
2013-01-24 11:22:00,50.0,19.0,30.04,NNW,338,9.0,23.0,29,0.00,,,0.00,meteohub,2013-01-24 18:22:00,
2013-01-24 11:27:00,50.4,18.5,30.04,NW,312,6.0,22.0,28,0.00,,,0.00,meteohub,2013-01-24 18:27:00,
2013-01-24 11:32:00,50.5,18.7,30.05,WNW,297,13.0,22.0,28,0.00,,,0.00,meteohub,2013-01-24 18:32:00,
2013-01-24 11:37:00,49.8,19.6,30.04,NE,49,3.0,20.0,30,0.00,,,0.00,meteohub,2013-01-24 18:37:00,
2013-01-24 11:42:00,50.0,18.1,30.03,NNW,333,4.0,20.0,28,0.00,,,0.00,meteohub,2013-01-24 18:42:00,
2013-01-24 11:47:00,50.2,18.3,30.04,SE,143,2.0,20.0,28,0.00,,,0.00,meteohub,2013-01-24 18:47:00,
2013-01-24 11:52:00,50.7,16.2,30.03,SE,138,9.0,15.0,25,0.00,,,0.00,meteohub,2013-01-24 18:52:00,
2013-01-24 11:57:00,50.9,16.3,30.03,SE,129,7.0,13.0,25,0.00,,,0.00,meteohub,2013-01-24 18:57:00,
2013-01-24 12:02:00,50.7,17.1,30.02,ESE,117,5.0,17.0,26,0.00,,,0.00,meteohub,2013-01-24 19:02:00,
2013-01-24 12:08:00,50.4,16.7,30.02,East,90,6.0,17.0,26,0.00,,,0.00,meteohub,2013-01-24 19:08:00,
2013-01-24 12:13:00,49.6,17.1,30.02,ENE,68,13.0,15.0,27,0.00,,,0.00,meteohub,2013-01-24 19:13:00,
2013-01-24 12:19:00,48.9,18.0,30.01,ENE,74,4.0,16.0,29,0.00,,,0.00,meteohub,2013-01-24 19:19:00,
2013-01-24 12:24:00,48.4,19.0,30.00,WNW,294,3.0,23.0,31,0.00,,,0.00,meteohub,2013-01-24 19:24:00,
2013-01-24 12:30:00,48.4,19.0,29.99,NE,38,8.0,23.0,31,0.00,,,0.00,meteohub,2013-01-24 19:30:00,
2013-01-24 12:35:00,48.9,18.9,29.98,East,82,10.0,23.0,30,0.00,,,0.00,meteohub,2013-01-24 19:35:00,
2013-01-24 12:41:00,49.3,19.9,29.99,ENE,60,2.0,20.0,31,0.00,,,0.00,meteohub,2013-01-24 19:41:00,
2013-01-24 12:46:00,49.3,19.2,29.98,SW,218,2.0,20.0,30,0.00,,,0.00,meteohub,2013-01-24 19:46:00,
2013-01-24 12:52:00,49.3,19.2,29.98,East,94,7.0,12.0,30,0.00,,,0.00,meteohub,2013-01-24 19:52:00,
2013-01-24 12:57:00,49.5,19.2,29.97,North,354,7.0,12.0,30,0.00,,,0.00,meteohub,2013-01-24 19:57:00,
2013-01-24 13:02:00,49.5,19.2,29.97,NNW,341,5.0,12.0,30,0.00,,,0.00,meteohub,2013-01-24 20:02:00,
2013-01-24 13:07:00,49.5,20.1,29.96,NNW,342,6.0,21.0,31,0.00,,,0.00,meteohub,2013-01-24 20:07:00,
2013-01-24 13:12:00,49.5,20.1,29.96,NNE,23,3.0,21.0,31,0.00,,,0.00,meteohub,2013-01-24 20:12:00,
2013-01-24 13:17:00,49.5,20.1,29.96,NNE,23,6.0,21.0,31,0.00,,,0.00,meteohub,2013-01-24 20:17:00,
2013-01-24 13:22:00,49.5,20.8,29.96,ENE,60,7.0,17.0,32,0.00,,,0.00,meteohub,2013-01-24 20:22:00,
2013-01-24 13:27:00,49.3,20.7,29.96,ENE,60,13.0,17.0,32,0.00,,,0.00,meteohub,2013-01-24 20:27:00,
2013-01-24 13:32:00,48.7,20.8,29.95,ESE,103,9.0,27.0,33,0.00,,,0.00,meteohub,2013-01-24 20:32:00,
2013-01-24 13:37:00,48.6,20.8,29.96,ENE,69,10.0,27.0,33,0.00,,,0.00,meteohub,2013-01-24 20:37:00,
2013-01-24 13:42:00,48.9,21.0,29.95,NNW,344,11.0,27.0,33,0.00,,,0.00,meteohub,2013-01-24 20:42:00,
2013-01-24 13:47:00,48.0,21.7,29.94,North,9,27.0,27.0,35,0.00,,,0.00,meteohub,2013-01-24 20:47:00,
2013-01-24 13:52:00,47.8,21.6,29.96,NNE,29,3.0,27.0,35,0.00,,,0.00,meteohub,2013-01-24 20:52:00,
2013-01-24 13:57:00,48.4,21.9,29.96,NW,314,8.0,27.0,35,0.00,,,0.00,meteohub,2013-01-24 20:57:00,
2013-01-24 14:02:00,48.2,21.7,29.95,ENE,58,8.0,27.0,35,0.00,,,0.00,meteohub,2013-01-24 21:02:00,
2013-01-24 14:07:00,48.0,21.7,29.95,NE,54,6.0,21.0,35,0.00,,,0.00,meteohub,2013-01-24 21:07:00,
2013-01-24 14:12:00,47.8,22.1,29.96,NE,43,9.0,21.0,36,0.00,,,0.00,meteohub,2013-01-24 21:12:00,
2013-01-24 14:17:00,47.8,22.1,29.95,NNW,331,9.0,21.0,36,0.00,,,0.00,meteohub,2013-01-24 21:17:00,
2013-01-24 14:22:00,47.5,22.5,29.95,NNW,336,13.0,20.0,37,0.00,,,0.00,meteohub,2013-01-24 21:22:00,
2013-01-24 14:27:00,47.8,22.1,29.94,North,0,11.0,20.0,36,0.00,,,0.00,meteohub,2013-01-24 21:27:00,
2013-01-24 14:32:00,47.7,22.6,29.94,NW,321,14.0,20.0,37,0.00,,,0.00,meteohub,2013-01-24 21:32:00,
2013-01-24 14:37:00,47.7,22.1,29.96,SSE,150,10.0,21.0,36,0.00,,,0.00,meteohub,2013-01-24 21:37:00,
2013-01-24 14:42:00,48.0,23.0,29.96,NW,325,11.0,21.0,37,0.00,,,0.00,meteohub,2013-01-24 21:42:00,
2013-01-24 14:48:00,47.8,22.8,29.95,NW,326,10.0,23.0,37,0.00,,,0.00,meteohub,2013-01-24 21:48:00,
2013-01-24 14:53:00,46.9,23.2,29.96,North,349,12.0,28.0,39,0.00,,,0.00,meteohub,2013-01-24 21:53:00,
2013-01-24 14:59:00,46.9,23.9,29.96,NNW,328,12.0,28.0,40,0.00,,,0.00,meteohub,2013-01-24 21:59:00,
2013-01-24 15:04:00,46.8,23.7,29.96,NNW,344,14.0,25.0,40,0.00,,,0.00,meteohub,2013-01-24 22:04:00,
2013-01-24 15:10:00,46.0,24.3,29.96,NNW,340,20.0,35.0,42,0.00,,,0.00,meteohub,2013-01-24 22:10:00,
2013-01-24 15:15:00,46.2,23.9,29.97,NNW,347,8.0,35.0,41,0.00,,,0.00,meteohub,2013-01-24 22:15:00,
2013-01-24 15:21:00,47.1,24.1,29.98,NW,325,10.0,30.0,40,0.00,,,0.00,meteohub,2013-01-24 22:21:00,
2013-01-24 15:26:00,46.8,23.7,29.97,NNW,335,13.0,24.0,40,0.00,,,0.00,meteohub,2013-01-24 22:26:00,
2013-01-24 15:32:00,46.9,24.4,29.97,NNW,339,12.0,24.0,41,0.00,,,0.00,meteohub,2013-01-24 22:32:00,
2013-01-24 15:37:00,47.1,24.1,29.96,NNW,336,22.0,24.0,40,0.00,,,0.00,meteohub,2013-01-24 22:37:00,
2013-01-24 15:42:00,47.1,24.1,29.97,NW,309,8.0,25.0,40,0.00,,,0.00,meteohub,2013-01-24 22:42:00,
2013-01-24 15:47:00,47.1,24.1,29.97,NNW,340,12.0,25.0,40,0.00,,,0.00,meteohub,2013-01-24 22:47:00,
2013-01-24 15:52:00,46.8,24.3,29.97,NW,312,23.0,25.0,41,0.00,,,0.00,meteohub,2013-01-24 22:52:00,
2013-01-24 15:57:00,46.0,24.3,29.96,WNW,289,15.0,27.0,42,0.00,,,0.00,meteohub,2013-01-24 22:57:00,
2013-01-24 16:02:00,46.8,24.3,29.96,NNW,342,17.0,27.0,41,0.00,,,0.00,meteohub,2013-01-24 23:02:00,
2013-01-24 16:07:00,46.4,23.9,29.97,NNW,333,13.0,27.0,41,0.00,,,0.00,meteohub,2013-01-24 23:07:00,
2013-01-24 16:12:00,46.4,23.9,29.97,North,349,12.0,33.0,41,0.00,,,0.00,meteohub,2013-01-24 23:12:00,
2013-01-24 16:17:00,46.6,24.1,29.97,NW,313,10.0,33.0,41,0.00,,,0.00,meteohub,2013-01-24 23:17:00,
2013-01-24 16:22:00,46.6,23.5,29.98,NW,318,5.0,28.0,40,0.00,,,0.00,meteohub,2013-01-24 23:22:00,
2013-01-24 16:27:00,46.6,23.5,29.98,NNE,14,10.0,23.0,40,0.00,,,0.00,meteohub,2013-01-24 23:27:00,
2013-01-24 16:32:00,46.2,23.2,29.99,NW,326,17.0,22.0,40,0.00,,,0.00,meteohub,2013-01-24 23:32:00,
2013-01-24 16:37:00,45.7,23.4,29.98,NNW,338,19.0,22.0,41,0.00,,,0.00,meteohub,2013-01-24 23:37:00,
2013-01-24 16:42:00,45.0,23.2,29.98,NNW,340,21.0,28.0,42,0.00,,,0.00,meteohub,2013-01-24 23:42:00,
2013-01-24 16:47:00,44.8,23.7,29.98,NNW,337,26.0,36.0,43,0.00,,,0.00,meteohub,2013-01-24 23:47:00,
2013-01-24 16:52:00,44.4,23.4,29.98,NNW,331,23.0,36.0,43,0.00,,,0.00,meteohub,2013-01-24 23:52:00,
2013-01-24 16:57:00,44.2,23.2,29.99,NNW,337,21.0,36.0,43,0.00,,,0.00,meteohub,2013-01-24 23:57:00,
2013-01-24 17:02:00,44.1,23.0,29.99,NW,323,29.0,35.0,43,0.00,,,0.00,meteohub,2013-01-25 00:02:00,
2013-01-24 17:07:00,44.1,23.0,29.99,NNW,336,21.0,36.0,43,0.00,,,0.00,meteohub,2013-01-25 00:07:00,
2013-01-24 17:12:00,43.9,22.8,30.00,NNW,335,11.0,36.0,43,0.00,,,0.00,meteohub,2013-01-25 00:12:00,
2013-01-24 17:17:00,43.9,23.4,30.00,NW,323,12.0,36.0,44,0.00,,,0.00,meteohub,2013-01-25 00:17:00,
2013-01-24 17:22:00,43.9,22.8,30.00,NW,319,14.0,27.0,43,0.00,,,0.00,meteohub,2013-01-25 00:22:00,
2013-01-24 17:27:00,43.9,22.8,30.00,NNW,347,22.0,30.0,43,0.00,,,0.00,meteohub,2013-01-25 00:27:00,
2013-01-24 17:32:00,43.5,22.5,30.00,NNW,346,19.0,37.0,43,0.00,,,0.00,meteohub,2013-01-25 00:32:00,
2013-01-24 17:37:00,43.5,23.0,29.99,NW,314,18.0,37.0,44,0.00,,,0.00,meteohub,2013-01-25 00:37:00,
2013-01-24 17:43:00,43.3,22.8,30.00,NNW,342,18.0,37.0,44,0.00,,,0.00,meteohub,2013-01-25 00:43:00,
2013-01-24 17:48:00,43.2,23.2,30.01,NW,323,18.0,36.0,45,0.00,,,0.00,meteohub,2013-01-25 00:48:00,
2013-01-24 17:54:00,43.2,23.2,30.00,West,279,20.0,36.0,45,0.00,,,0.00,meteohub,2013-01-25 00:54:00,
2013-01-24 17:59:00,43.2,23.2,30.02,NNW,342,24.0,36.0,45,0.00,,,0.00,meteohub,2013-01-25 00:59:00,
2013-01-24 18:05:00,43.0,23.2,30.01,North,349,24.0,37.0,45,0.00,,,0.00,meteohub,2013-01-25 01:05:00,
2013-01-24 18:10:00,43.2,22.6,30.01,NW,326,23.0,37.0,44,0.00,,,0.00,meteohub,2013-01-25 01:10:00,
2013-01-24 18:16:00,43.2,22.6,30.02,NW,318,21.0,34.0,44,0.00,,,0.00,meteohub,2013-01-25 01:16:00,
2013-01-24 18:21:00,43.3,22.3,30.03,NNW,328,16.0,34.0,43,0.00,,,0.00,meteohub,2013-01-25 01:21:00,
2013-01-24 18:27:00,43.3,22.8,30.04,NW,324,16.0,34.0,44,0.00,,,0.00,meteohub,2013-01-25 01:27:00,
2013-01-24 18:32:00,43.3,22.8,30.04,NNW,341,19.0,30.0,44,0.00,,,0.00,meteohub,2013-01-25 01:32:00,
2013-01-24 18:37:00,43.3,22.8,30.04,NNW,333,15.0,28.0,44,0.00,,,0.00,meteohub,2013-01-25 01:37:00,
2013-01-24 18:42:00,43.3,22.8,30.06,West,268,12.0,30.0,44,0.00,,,0.00,meteohub,2013-01-25 01:42:00,
2013-01-24 18:47:00,43.2,23.2,30.05,NW,312,13.0,30.0,45,0.00,,,0.00,meteohub,2013-01-25 01:47:00,
2013-01-24 18:52:00,43.0,23.2,30.05,NNW,337,11.0,31.0,45,0.00,,,0.00,meteohub,2013-01-25 01:52:00,
2013-01-24 18:57:00,43.0,23.2,30.04,NW,309,10.0,31.0,45,0.00,,,0.00,meteohub,2013-01-25 01:57:00,
2013-01-24 19:02:00,43.0,23.2,30.05,NW,324,16.0,31.0,45,0.00,,,0.00,meteohub,2013-01-25 02:02:00,
2013-01-24 19:07:00,42.8,23.4,30.05,NW,313,22.0,27.0,46,0.00,,,0.00,meteohub,2013-01-25 02:07:00,
2013-01-24 19:12:00,43.3,22.8,30.05,NW,308,16.0,27.0,44,0.00,,,0.00,meteohub,2013-01-25 02:12:00,
2013-01-24 19:17:00,43.3,22.8,30.05,NNW,336,13.0,28.0,44,0.00,,,0.00,meteohub,2013-01-25 02:17:00,
2013-01-24 19:22:00,43.5,22.5,30.05,NW,323,10.0,28.0,43,0.00,,,0.00,meteohub,2013-01-25 02:22:00,
2013-01-24 19:27:00,43.3,22.8,30.06,NNW,327,19.0,28.0,44,0.00,,,0.00,meteohub,2013-01-25 02:27:00,
2013-01-24 19:32:00,43.0,23.2,30.07,WNW,300,4.0,27.0,45,0.00,,,0.00,meteohub,2013-01-25 02:32:00,
2013-01-24 19:37:00,42.1,23.4,30.06,SE,124,6.0,27.0,47,0.00,,,0.00,meteohub,2013-01-25 02:37:00,
2013-01-24 19:42:00,40.8,23.2,30.06,SSW,205,0.0,22.0,49,0.00,,,0.00,meteohub,2013-01-25 02:42:00,
2013-01-24 19:47:00,40.3,23.2,30.06,SSE,166,6.0,10.0,50,0.00,,,0.00,meteohub,2013-01-25 02:47:00,
2013-01-24 19:52:00,39.9,23.2,30.07,North,8,10.0,10.0,51,0.00,,,0.00,meteohub,2013-01-25 02:52:00,
2013-01-24 19:57:00,41.4,23.2,30.06,NNE,22,12.0,15.0,48,0.00,,,0.00,meteohub,2013-01-25 02:57:00,
2013-01-24 20:02:00,41.5,23.4,30.07,NW,316,1.0,16.0,48,0.00,,,0.00,meteohub,2013-01-25 03:02:00,
2013-01-24 20:07:00,41.2,23.0,30.08,NW,321,4.0,16.0,48,0.00,,,0.00,meteohub,2013-01-25 03:07:00,
2013-01-24 20:12:00,40.8,23.2,30.08,NW,314,8.0,14.0,49,0.00,,,0.00,meteohub,2013-01-25 03:12:00,
2013-01-24 20:17:00,41.5,23.4,30.07,NW,316,14.0,14.0,48,0.00,,,0.00,meteohub,2013-01-25 03:17:00,
2013-01-24 20:22:00,42.6,23.4,30.06,NNW,332,13.0,20.0,46,0.00,,,0.00,meteohub,2013-01-25 03:22:00,
2013-01-24 20:27:00,43.0,23.2,30.07,SE,124,3.0,25.0,45,0.00,,,0.00,meteohub,2013-01-25 03:27:00,
2013-01-24 20:32:00,41.9,23.7,30.08,South,176,11.0,25.0,48,0.00,,,0.00,meteohub,2013-01-25 03:32:00,
2013-01-24 20:37:00,40.3,23.5,30.09,SW,228,3.0,25.0,51,0.00,,,0.00,meteohub,2013-01-25 03:37:00,
2013-01-24 20:42:00,39.6,23.9,30.09,SSE,162,8.0,17.0,53,0.00,,,0.00,meteohub,2013-01-25 03:42:00,
2013-01-24 20:47:00,39.6,23.9,30.08,SE,129,3.0,13.0,53,0.00,,,0.00,meteohub,2013-01-25 03:47:00,
2013-01-24 20:52:00,39.4,23.7,30.09,SE,138,4.0,12.0,53,0.00,,,0.00,meteohub,2013-01-25 03:52:00,
2013-01-24 20:57:00,38.8,24.1,30.09,SE,132,4.0,12.0,55,0.00,,,0.00,meteohub,2013-01-25 03:57:00,
2013-01-24 21:02:00,38.3,23.9,30.08,SE,135,4.0,10.0,56,0.00,,,0.00,meteohub,2013-01-25 04:02:00,
2013-01-24 21:07:00,37.9,24.1,30.08,SSE,159,9.0,10.0,57,0.00,,,0.00,meteohub,2013-01-25 04:07:00,
2013-01-24 21:12:00,37.9,24.4,30.08,WNW,288,5.0,12.0,58,0.00,,,0.00,meteohub,2013-01-25 04:12:00,
2013-01-24 21:17:00,37.8,24.3,30.09,SW,218,0.0,12.0,58,0.00,,,0.00,meteohub,2013-01-25 04:17:00,
2013-01-24 21:22:00,37.2,24.3,30.09,ESE,120,1.0,12.0,59,0.00,,,0.00,meteohub,2013-01-25 04:22:00,
2013-01-24 21:27:00,38.1,24.3,30.09,SSE,148,5.0,7.0,57,0.00,,,0.00,meteohub,2013-01-25 04:27:00,
2013-01-24 21:32:00,38.7,24.3,30.09,South,184,3.0,7.0,56,0.00,,,0.00,meteohub,2013-01-25 04:32:00,
2013-01-24 21:37:00,37.6,23.7,30.09,WNW,293,0.0,7.0,57,0.00,,,0.00,meteohub,2013-01-25 04:37:00,
2013-01-24 21:42:00,37.6,24.1,30.09,SSE,162,2.0,7.0,58,0.00,,,0.00,meteohub,2013-01-25 04:42:00,
2013-01-24 21:47:00,37.2,23.7,30.09,South,181,4.0,7.0,58,0.00,,,0.00,meteohub,2013-01-25 04:47:00,
2013-01-24 21:52:00,37.6,24.6,30.09,SW,231,6.0,10.0,59,0.00,,,0.00,meteohub,2013-01-25 04:52:00,
2013-01-24 21:57:00,37.4,23.9,30.09,SE,126,5.0,10.0,58,0.00,,,0.00,meteohub,2013-01-25 04:57:00,
2013-01-24 22:01:00,37.2,24.3,30.09,South,169,3.0,10.0,59,0.00,,,0.00,meteohub,2013-01-25 05:01:00,
2013-01-24 22:02:00,37.2,24.3,30.09,SW,215,3.0,10.0,59,0.00,,,0.00,meteohub,2013-01-25 05:02:00,
2013-01-24 22:03:00,37.2,24.3,30.10,South,179,2.0,10.0,59,0.00,,,0.00,meteohub,2013-01-25 05:03:00,
2013-01-24 22:04:00,37.2,24.3,30.10,SSE,158,3.0,10.0,59,0.00,,,0.00,meteohub,2013-01-25 05:04:00,
2013-01-24 22:09:00,37.0,24.1,30.09,SSE,152,2.0,9.0,59,0.00,,,0.00,meteohub,2013-01-25 05:09:00,
2013-01-24 22:15:00,37.2,24.3,30.10,SSE,159,4.0,8.0,59,0.00,,,0.00,meteohub,2013-01-25 05:15:00,
2013-01-24 22:20:00,37.4,24.4,30.12,SE,130,3.0,7.0,59,0.00,,,0.00,meteohub,2013-01-25 05:20:00,
2013-01-24 22:26:00,37.4,24.4,30.12,SSE,151,0.0,7.0,59,0.00,,,0.00,meteohub,2013-01-25 05:26:00,
2013-01-24 22:31:00,37.0,24.4,30.12,SW,218,1.0,7.0,60,0.00,,,0.00,meteohub,2013-01-25 05:31:00,
2013-01-24 22:37:00,36.7,24.1,30.12,SW,217,1.0,5.0,60,0.00,,,0.00,meteohub,2013-01-25 05:37:00,
2013-01-24 22:42:00,36.1,24.1,30.11,SE,138,5.0,5.0,61,0.00,,,0.00,meteohub,2013-01-25 05:42:00,
2013-01-24 22:47:00,36.0,24.3,30.10,South,169,3.0,7.0,62,0.00,,,0.00,meteohub,2013-01-25 05:47:00,
2013-01-24 22:52:00,36.0,24.3,30.11,SSW,205,5.0,8.0,62,0.00,,,0.00,meteohub,2013-01-25 05:52:00,
2013-01-24 22:57:00,36.0,24.3,30.11,South,177,2.0,8.0,62,0.00,,,0.00,meteohub,2013-01-25 05:57:00,
2013-01-24 23:02:00,35.8,24.4,30.11,SSE,156,3.0,8.0,63,0.00,,,0.00,meteohub,2013-01-25 06:02:00,
2013-01-24 23:07:00,36.0,24.3,30.10,SSE,152,3.0,7.0,62,0.00,,,0.00,meteohub,2013-01-25 06:07:00,
2013-01-24 23:12:00,36.0,24.3,30.10,SSE,163,4.0,7.0,62,0.00,,,0.00,meteohub,2013-01-25 06:12:00,
2013-01-24 23:17:00,35.8,24.1,30.09,South,171,5.0,7.0,62,0.00,,,0.00,meteohub,2013-01-25 06:17:00,
2013-01-24 23:22:00,35.2,24.3,30.10,South,184,2.0,7.0,64,0.00,,,0.00,meteohub,2013-01-25 06:22:00,
2013-01-24 23:27:00,35.2,24.3,30.11,SSW,209,3.0,7.0,64,0.00,,,0.00,meteohub,2013-01-25 06:27:00,
2013-01-24 23:33:00,35.1,24.4,30.12,WSW,255,1.0,7.0,65,0.00,,,0.00,meteohub,2013-01-25 06:33:00,
2013-01-24 23:38:00,34.9,24.3,30.12,SSW,212,3.0,7.0,65,0.00,,,0.00,meteohub,2013-01-25 06:38:00,
2013-01-24 23:44:00,35.4,24.8,30.12,WSW,250,2.0,4.0,65,0.00,,,0.00,meteohub,2013-01-25 06:44:00,
2013-01-24 23:49:00,35.8,24.8,30.12,WSW,245,1.0,4.0,64,0.00,,,0.00,meteohub,2013-01-25 06:49:00,
2013-01-24 23:55:00,36.3,25.0,30.12,South,177,2.0,4.0,63,0.00,,,0.00,meteohub,2013-01-25 06:55:00,